sensor_id;sensor_type;location;lat;lon;timestamp;P1;durP1;ratioP1;P2;durP2;ratioP2
17261;SDS011;9873;52.236;21.002;2023-05-10T00:03:50;13.93;;;6.47;;
17261;SDS011;9873;52.236;21.002;2023-05-10T00:13:57;12.07;;;5.27;;
17261;SDS011;9873;52.236;21.002;2023-05-10T00:24:01;10.43;;;4.83;;
17261;SDS011;9873;52.236;21.002;2023-05-10T00:34:06;7.03;;;4.70;;
17261;SDS011;9873;52.236;21.002;2023-05-10T00:44:10;8.43;;;4.83;;
17261;SDS011;9873;52.236;21.002;2023-05-10T00:54:14;6.30;;;4.27;;
17261;SDS011;9873;52.236;21.002;2023-05-10T01:04:17;9.00;;;4.80;;
17261;SDS011;9873;52.236;21.002;2023-05-10T01:14:21;6.10;;;4.20;;
17261;SDS011;9873;52.236;21.002;2023-05-10T01:24:30;5.83;;;4.43;;
17261;SDS011;9873;52.236;21.002;2023-05-10T01:34:40;6.23;;;4.77;;
17261;SDS011;9873;52.236;21.002;2023-05-10T01:55:00;7.87;;;4.47;;
17261;SDS011;9873;52.236;21.002;2023-05-10T02:05:06;5.40;;;4.10;;
17261;SDS011;9873;52.236;21.002;2023-05-10T02:15:12;6.37;;;4.20;;
17261;SDS011;9873;52.236;21.002;2023-05-10T02:25:21;5.17;;;3.90;;
17261;SDS011;9873;52.236;21.002;2023-05-10T02:35:25;7.13;;;4.17;;
17261;SDS011;9873;52.236;21.002;2023-05-10T02:45:32;5.10;;;3.73;;
17261;SDS011;9873;52.236;21.002;2023-05-10T02:55:40;7.67;;;4.33;;
17261;SDS011;9873;52.236;21.002;2023-05-10T03:05:44;15.83;;;4.73;;
17261;SDS011;9873;52.236;21.002;2023-05-10T03:16:00;6.97;;;4.20;;
17261;SDS011;9873;52.236;21.002;2023-05-10T03:26:06;8.53;;;4.37;;
17261;SDS011;9873;52.236;21.002;2023-05-10T03:36:12;4.97;;;3.80;;
17261;SDS011;9873;52.236;21.002;2023-05-10T03:46:14;7.70;;;4.37;;
17261;SDS011;9873;52.236;21.002;2023-05-10T03:56:18;6.90;;;4.33;;
17261;SDS011;9873;52.236;21.002;2023-05-10T04:06:25;8.80;;;3.90;;
17261;SDS011;9873;52.236;21.002;2023-05-10T04:16:29;8.13;;;4.20;;
17261;SDS011;9873;52.236;21.002;2023-05-10T04:26:34;6.57;;;4.63;;
17261;SDS011;9873;52.236;21.002;2023-05-10T04:36:38;7.60;;;4.37;;
17261;SDS011;9873;52.236;21.002;2023-05-10T04:46:41;6.13;;;4.27;;
17261;SDS011;9873;52.236;21.002;2023-05-10T04:56:45;5.18;;;3.97;;
17261;SDS011;9873;52.236;21.002;2023-05-10T05:06:48;8.87;;;3.97;;
17261;SDS011;9873;52.236;21.002;2023-05-10T05:16:54;5.15;;;3.90;;
17261;SDS011;9873;52.236;21.002;2023-05-10T05:27:01;10.75;;;3.50;;
17261;SDS011;9873;52.236;21.002;2023-05-10T05:37:12;8.32;;;3.40;;
17261;SDS011;9873;52.236;21.002;2023-05-10T05:47:15;6.68;;;3.60;;
17261;SDS011;9873;52.236;21.002;2023-05-10T05:57:18;8.43;;;4.20;;
17261;SDS011;9873;52.236;21.002;2023-05-10T06:07:20;7.75;;;2.90;;
17261;SDS011;9873;52.236;21.002;2023-05-10T06:17:24;7.97;;;3.47;;
17261;SDS011;9873;52.236;21.002;2023-05-10T06:27:27;4.22;;;3.25;;
17261;SDS011;9873;52.236;21.002;2023-05-10T06:37:33;4.10;;;2.90;;
17261;SDS011;9873;52.236;21.002;2023-05-10T06:47:36;6.13;;;3.30;;
17261;SDS011;9873;52.236;21.002;2023-05-10T06:57:42;3.50;;;2.42;;
17261;SDS011;9873;52.236;21.002;2023-05-10T07:07:49;3.90;;;2.55;;
17261;SDS011;9873;52.236;21.002;2023-05-10T07:17:56;5.82;;;2.60;;
17261;SDS011;9873;52.236;21.002;2023-05-10T07:27:59;2.88;;;2.33;;
17261;SDS011;9873;52.236;21.002;2023-05-10T07:38:06;5.93;;;2.95;;
17261;SDS011;9873;52.236;21.002;2023-05-10T07:48:09;3.47;;;2.15;;
17261;SDS011;9873;52.236;21.002;2023-05-10T07:58:14;8.63;;;2.67;;
17261;SDS011;9873;52.236;21.002;2023-05-10T08:08:23;2.03;;;1.45;;
17261;SDS011;9873;52.236;21.002;2023-05-10T08:18:30;2.88;;;2.00;;
17261;SDS011;9873;52.236;21.002;2023-05-10T08:28:33;6.47;;;1.70;;
17261;SDS011;9873;52.236;21.002;2023-05-10T08:38:38;2.80;;;1.83;;
17261;SDS011;9873;52.236;21.002;2023-05-10T08:48:41;3.08;;;2.08;;
17261;SDS011;9873;52.236;21.002;2023-05-10T08:58:48;5.40;;;2.13;;
17261;SDS011;9873;52.236;21.002;2023-05-10T09:08:53;6.15;;;2.40;;
17261;SDS011;9873;52.236;21.002;2023-05-10T09:18:55;7.50;;;2.10;;
17261;SDS011;9873;52.236;21.002;2023-05-10T09:28:58;7.35;;;2.42;;
17261;SDS011;9873;52.236;21.002;2023-05-10T09:39:01;5.60;;;2.38;;
17261;SDS011;9873;52.236;21.002;2023-05-10T09:49:06;3.92;;;2.38;;
17261;SDS011;9873;52.236;21.002;2023-05-10T09:59:12;4.95;;;2.22;;
17261;SDS011;9873;52.236;21.002;2023-05-10T10:09:16;5.45;;;2.05;;
17261;SDS011;9873;52.236;21.002;2023-05-10T10:19:20;6.25;;;2.13;;
17261;SDS011;9873;52.236;21.002;2023-05-10T10:29:26;6.63;;;2.33;;
17261;SDS011;9873;52.236;21.002;2023-05-10T10:39:54;3.20;;;2.13;;
17261;SDS011;9873;52.236;21.002;2023-05-10T11:10:38;3.60;;;1.98;;
17261;SDS011;9873;52.236;21.002;2023-05-10T11:20:43;5.70;;;2.10;;
17261;SDS011;9873;52.236;21.002;2023-05-10T11:30:50;3.55;;;2.00;;
17261;SDS011;9873;52.236;21.002;2023-05-10T11:40:58;3.75;;;2.30;;
17261;SDS011;9873;52.236;21.002;2023-05-10T11:51:04;3.83;;;2.00;;
17261;SDS011;9873;52.236;21.002;2023-05-10T12:01:08;4.38;;;2.28;;
17261;SDS011;9873;52.236;21.002;2023-05-10T12:11:13;2.60;;;1.85;;
17261;SDS011;9873;52.236;21.002;2023-05-10T12:21:20;4.32;;;2.28;;
17261;SDS011;9873;52.236;21.002;2023-05-10T12:31:27;7.30;;;2.35;;
17261;SDS011;9873;52.236;21.002;2023-05-10T12:41:32;3.92;;;2.22;;
17261;SDS011;9873;52.236;21.002;2023-05-10T12:51:36;7.57;;;2.13;;
17261;SDS011;9873;52.236;21.002;2023-05-10T13:01:39;3.20;;;2.00;;
17261;SDS011;9873;52.236;21.002;2023-05-10T13:11:48;4.25;;;1.98;;
17261;SDS011;9873;52.236;21.002;2023-05-10T13:21:52;2.40;;;1.80;;
17261;SDS011;9873;52.236;21.002;2023-05-10T13:31:59;2.00;;;1.80;;
17261;SDS011;9873;52.236;21.002;2023-05-10T13:42:02;4.18;;;2.08;;
17261;SDS011;9873;52.236;21.002;2023-05-10T13:52:09;4.85;;;2.30;;
17261;SDS011;9873;52.236;21.002;2023-05-10T14:02:12;3.85;;;1.85;;
17261;SDS011;9873;52.236;21.002;2023-05-10T14:12:21;4.07;;;2.17;;
17261;SDS011;9873;52.236;21.002;2023-05-10T14:22:27;2.63;;;2.10;;
17261;SDS011;9873;52.236;21.002;2023-05-10T14:32:32;5.38;;;2.47;;
17261;SDS011;9873;52.236;21.002;2023-05-10T14:42:40;3.15;;;2.10;;
17261;SDS011;9873;52.236;21.002;2023-05-10T15:02:48;6.78;;;2.38;;
17261;SDS011;9873;52.236;21.002;2023-05-10T15:12:52;5.07;;;2.35;;
17261;SDS011;9873;52.236;21.002;2023-05-10T15:22:58;4.50;;;2.20;;
17261;SDS011;9873;52.236;21.002;2023-05-10T15:33:01;3.85;;;2.10;;
17261;SDS011;9873;52.236;21.002;2023-05-10T15:43:06;7.28;;;2.25;;
17261;SDS011;9873;52.236;21.002;2023-05-10T15:53:09;5.07;;;2.25;;
17261;SDS011;9873;52.236;21.002;2023-05-10T16:03:11;2.00;;;1.83;;
17261;SDS011;9873;52.236;21.002;2023-05-10T16:13:16;2.40;;;2.00;;
17261;SDS011;9873;52.236;21.002;2023-05-10T16:23:19;5.72;;;2.72;;
17261;SDS011;9873;52.236;21.002;2023-05-10T16:33:21;4.57;;;1.80;;
17261;SDS011;9873;52.236;21.002;2023-05-10T16:43:28;3.58;;;1.75;;
17261;SDS011;9873;52.236;21.002;2023-05-10T16:53:32;3.97;;;1.85;;
17261;SDS011;9873;52.236;21.002;2023-05-10T17:03:41;4.40;;;1.70;;
17261;SDS011;9873;52.236;21.002;2023-05-10T17:13:45;3.15;;;1.90;;
17261;SDS011;9873;52.236;21.002;2023-05-10T17:23:48;3.17;;;2.00;;
17261;SDS011;9873;52.236;21.002;2023-05-10T17:33:53;2.38;;;2.00;;
17261;SDS011;9873;52.236;21.002;2023-05-10T17:43:59;4.88;;;2.10;;
17261;SDS011;9873;52.236;21.002;2023-05-10T17:54:09;3.45;;;2.10;;
17261;SDS011;9873;52.236;21.002;2023-05-10T18:04:18;4.40;;;2.50;;
17261;SDS011;9873;52.236;21.002;2023-05-10T18:14:24;5.25;;;2.22;;
17261;SDS011;9873;52.236;21.002;2023-05-10T18:24:44;5.05;;;2.20;;
17261;SDS011;9873;52.236;21.002;2023-05-10T18:34:50;5.38;;;2.42;;
17261;SDS011;9873;52.236;21.002;2023-05-10T18:44:59;5.90;;;2.30;;
17261;SDS011;9873;52.236;21.002;2023-05-10T18:55:04;6.93;;;2.53;;
17261;SDS011;9873;52.236;21.002;2023-05-10T19:05:12;4.38;;;2.40;;
17261;SDS011;9873;52.236;21.002;2023-05-10T19:15:19;3.80;;;2.83;;
17261;SDS011;9873;52.236;21.002;2023-05-10T19:25:28;5.35;;;3.30;;
17261;SDS011;9873;52.236;21.002;2023-05-10T19:35:30;5.65;;;2.88;;
17261;SDS011;9873;52.236;21.002;2023-05-10T19:45:32;4.90;;;3.33;;
17261;SDS011;9873;52.236;21.002;2023-05-10T19:55:37;5.13;;;3.20;;
17261;SDS011;9873;52.236;21.002;2023-05-10T20:05:42;5.93;;;3.25;;
17261;SDS011;9873;52.236;21.002;2023-05-10T20:15:53;7.07;;;2.95;;
17261;SDS011;9873;52.236;21.002;2023-05-10T20:26:03;6.28;;;3.85;;
17261;SDS011;9873;52.236;21.002;2023-05-10T20:36:06;10.88;;;3.90;;
17261;SDS011;9873;52.236;21.002;2023-05-10T20:46:10;5.03;;;3.40;;
17261;SDS011;9873;52.236;21.002;2023-05-10T20:56:15;6.03;;;3.40;;
17261;SDS011;9873;52.236;21.002;2023-05-10T21:06:17;5.47;;;3.75;;
17261;SDS011;9873;52.236;21.002;2023-05-10T21:16:22;9.50;;;4.47;;
17261;SDS011;9873;52.236;21.002;2023-05-10T21:26:24;8.07;;;4.22;;
17261;SDS011;9873;52.236;21.002;2023-05-10T21:36:29;6.15;;;4.03;;
17261;SDS011;9873;52.236;21.002;2023-05-10T21:46:31;5.72;;;4.72;;
17261;SDS011;9873;52.236;21.002;2023-05-10T21:56:38;7.15;;;4.15;;
17261;SDS011;9873;52.236;21.002;2023-05-10T22:06:40;8.03;;;4.50;;
17261;SDS011;9873;52.236;21.002;2023-05-10T22:16:45;6.05;;;3.97;;
17261;SDS011;9873;52.236;21.002;2023-05-10T22:26:52;6.47;;;4.35;;
17261;SDS011;9873;52.236;21.002;2023-05-10T22:36:57;5.90;;;3.80;;
17261;SDS011;9873;52.236;21.002;2023-05-10T22:47:00;5.07;;;3.50;;
17261;SDS011;9873;52.236;21.002;2023-05-10T22:57:05;5.95;;;3.60;;
17261;SDS011;9873;52.236;21.002;2023-05-10T23:07:10;8.23;;;4.05;;
17261;SDS011;9873;52.236;21.002;2023-05-10T23:17:15;7.50;;;3.30;;
17261;SDS011;9873;52.236;21.002;2023-05-10T23:27:17;5.70;;;3.70;;
17261;SDS011;9873;52.236;21.002;2023-05-10T23:37:21;5.47;;;3.27;;
17261;SDS011;9873;52.236;21.002;2023-05-10T23:47:24;5.13;;;3.40;;
17261;SDS011;9873;52.236;21.002;2023-05-10T23:57:28;4.83;;;3.63;;
